sensor_id;sensor_type;location;lat;lon;timestamp;P1;durP1;ratioP1;P2;durP2;ratioP2
7817;SDS011;3954;52.624;9.212;2023-02-15T00:00:03;20.10;;;16.95;;
7817;SDS011;3954;52.624;9.212;2023-02-15T00:02:30;17.98;;;16.05;;
7817;SDS011;3954;52.624;9.212;2023-02-15T00:04:57;15.77;;;14.10;;
7817;SDS011;3954;52.624;9.212;2023-02-15T00:07:23;16.60;;;14.80;;
7817;SDS011;3954;52.624;9.212;2023-02-15T00:09:49;16.60;;;14.05;;
7817;SDS011;3954;52.624;9.212;2023-02-15T00:12:15;18.52;;;16.08;;
7817;SDS011;3954;52.624;9.212;2023-02-15T00:14:41;17.27;;;15.18;;
7817;SDS011;3954;52.624;9.212;2023-02-15T00:17:07;17.27;;;15.37;;
7817;SDS011;3954;52.624;9.212;2023-02-15T00:19:33;17.77;;;15.52;;
7817;SDS011;3954;52.624;9.212;2023-02-15T00:22:01;19.67;;;16.92;;
7817;SDS011;3954;52.624;9.212;2023-02-15T00:24:27;17.92;;;16.02;;
7817;SDS011;3954;52.624;9.212;2023-02-15T00:26:53;18.65;;;15.88;;
7817;SDS011;3954;52.624;9.212;2023-02-15T00:29:19;19.42;;;15.77;;
7817;SDS011;3954;52.624;9.212;2023-02-15T00:31:45;18.48;;;15.20;;
7817;SDS011;3954;52.624;9.212;2023-02-15T00:34:12;16.90;;;14.82;;
7817;SDS011;3954;52.624;9.212;2023-02-15T00:36:39;16.58;;;14.57;;
7817;SDS011;3954;52.624;9.212;2023-02-15T00:39:06;19.27;;;15.63;;
7817;SDS011;3954;52.624;9.212;2023-02-15T00:41:32;18.60;;;15.65;;
7817;SDS011;3954;52.624;9.212;2023-02-15T00:43:59;19.20;;;15.93;;
7817;SDS011;3954;52.624;9.212;2023-02-15T00:46:25;18.25;;;15.88;;
7817;SDS011;3954;52.624;9.212;2023-02-15T00:48:51;19.10;;;15.90;;
7817;SDS011;3954;52.624;9.212;2023-02-15T00:51:17;15.65;;;13.95;;
7817;SDS011;3954;52.624;9.212;2023-02-15T00:53:43;14.90;;;13.20;;
7817;SDS011;3954;52.624;9.212;2023-02-15T00:56:11;14.20;;;12.70;;
7817;SDS011;3954;52.624;9.212;2023-02-15T00:58:37;13.63;;;12.23;;
7817;SDS011;3954;52.624;9.212;2023-02-15T01:01:03;13.77;;;12.27;;
7817;SDS011;3954;52.624;9.212;2023-02-15T01:03:30;12.75;;;11.45;;
7817;SDS011;3954;52.624;9.212;2023-02-15T01:05:56;14.10;;;11.82;;
7817;SDS011;3954;52.624;9.212;2023-02-15T01:08:22;14.82;;;13.23;;
7817;SDS011;3954;52.624;9.212;2023-02-15T01:10:48;17.10;;;14.50;;
7817;SDS011;3954;52.624;9.212;2023-02-15T01:13:16;18.98;;;16.13;;
7817;SDS011;3954;52.624;9.212;2023-02-15T01:15:42;20.48;;;16.70;;
7817;SDS011;3954;52.624;9.212;2023-02-15T01:18:08;20.08;;;17.00;;
7817;SDS011;3954;52.624;9.212;2023-02-15T01:20:35;19.52;;;17.35;;
7817;SDS011;3954;52.624;9.212;2023-02-15T01:23:03;18.92;;;16.88;;
7817;SDS011;3954;52.624;9.212;2023-02-15T01:25:29;19.63;;;16.65;;
7817;SDS011;3954;52.624;9.212;2023-02-15T01:27:55;17.10;;;15.30;;
7817;SDS011;3954;52.624;9.212;2023-02-15T01:30:23;17.02;;;15.23;;
7817;SDS011;3954;52.624;9.212;2023-02-15T01:32:49;17.58;;;15.77;;
7817;SDS011;3954;52.624;9.212;2023-02-15T01:35:15;16.70;;;15.00;;
7817;SDS011;3954;52.624;9.212;2023-02-15T01:37:41;16.58;;;14.88;;
7817;SDS011;3954;52.624;9.212;2023-02-15T01:40:10;17.00;;;15.20;;
7817;SDS011;3954;52.624;9.212;2023-02-15T01:42:37;16.55;;;14.85;;
7817;SDS011;3954;52.624;9.212;2023-02-15T01:45:04;16.63;;;14.93;;
7817;SDS011;3954;52.624;9.212;2023-02-15T01:47:35;16.70;;;15.00;;
7817;SDS011;3954;52.624;9.212;2023-02-15T01:50:03;16.65;;;14.95;;
7817;SDS011;3954;52.624;9.212;2023-02-15T01:52:31;15.80;;;14.20;;
7817;SDS011;3954;52.624;9.212;2023-02-15T01:54:58;15.23;;;13.73;;
7817;SDS011;3954;52.624;9.212;2023-02-15T01:57:24;14.75;;;13.27;;
7817;SDS011;3954;52.624;9.212;2023-02-15T01:59:52;15.90;;;14.30;;
7817;SDS011;3954;52.624;9.212;2023-02-15T02:02:19;15.68;;;14.15;;
7817;SDS011;3954;52.624;9.212;2023-02-15T02:04:47;15.50;;;14.00;;
7817;SDS011;3954;52.624;9.212;2023-02-15T02:07:14;18.58;;;16.67;;
7817;SDS011;3954;52.624;9.212;2023-02-15T02:09:40;16.67;;;14.98;;
7817;SDS011;3954;52.624;9.212;2023-02-15T02:12:06;16.75;;;15.05;;
7817;SDS011;3954;52.624;9.212;2023-02-15T02:14:33;16.67;;;14.98;;
7817;SDS011;3954;52.624;9.212;2023-02-15T02:17:02;16.17;;;14.52;;
7817;SDS011;3954;52.624;9.212;2023-02-15T02:19:40;17.95;;;15.95;;
7817;SDS011;3954;52.624;9.212;2023-02-15T02:22:20;16.20;;;14.50;;
7817;SDS011;3954;52.624;9.212;2023-02-15T02:25:06;14.80;;;13.30;;
7817;SDS011;3954;52.624;9.212;2023-02-15T02:27:37;12.50;;;11.30;;
7817;SDS011;3954;52.624;9.212;2023-02-15T02:33:01;11.48;;;10.43;;
7817;SDS011;3954;52.624;9.212;2023-02-15T02:35:36;14.15;;;12.75;;
7817;SDS011;3954;52.624;9.212;2023-02-15T02:38:06;20.88;;;12.15;;
7817;SDS011;3954;52.624;9.212;2023-02-15T02:40:40;12.40;;;11.23;;
7817;SDS011;3954;52.624;9.212;2023-02-15T02:43:10;11.65;;;10.60;;
7817;SDS011;3954;52.624;9.212;2023-02-15T02:45:39;12.25;;;11.15;;
7817;SDS011;3954;52.624;9.212;2023-02-15T02:48:09;13.07;;;11.77;;
7817;SDS011;3954;52.624;9.212;2023-02-15T02:50:38;12.53;;;11.30;;
7817;SDS011;3954;52.624;9.212;2023-02-15T02:53:04;12.00;;;10.90;;
7817;SDS011;3954;52.624;9.212;2023-02-15T02:55:31;12.25;;;11.15;;
7817;SDS011;3954;52.624;9.212;2023-02-15T02:58:01;11.43;;;10.32;;
7817;SDS011;3954;52.624;9.212;2023-02-15T03:00:29;11.93;;;10.82;;
7817;SDS011;3954;52.624;9.212;2023-02-15T03:02:57;11.45;;;10.45;;
7817;SDS011;3954;52.624;9.212;2023-02-15T03:05:31;11.27;;;10.27;;
7817;SDS011;3954;52.624;9.212;2023-02-15T03:07:57;10.65;;;9.65;;
7817;SDS011;3954;52.624;9.212;2023-02-15T03:10:26;11.20;;;10.10;;
7817;SDS011;3954;52.624;9.212;2023-02-15T03:12:54;10.95;;;9.95;;
7817;SDS011;3954;52.624;9.212;2023-02-15T03:15:21;11.98;;;10.88;;
7817;SDS011;3954;52.624;9.212;2023-02-15T03:17:48;11.55;;;10.50;;
7817;SDS011;3954;52.624;9.212;2023-02-15T03:20:16;11.75;;;10.75;;
7817;SDS011;3954;52.624;9.212;2023-02-15T03:22:46;11.35;;;10.32;;
7817;SDS011;3954;52.624;9.212;2023-02-15T03:25:15;12.65;;;11.45;;
7817;SDS011;3954;52.624;9.212;2023-02-15T03:27:43;11.27;;;10.27;;
7817;SDS011;3954;52.624;9.212;2023-02-15T03:30:11;12.52;;;11.32;;
7817;SDS011;3954;52.624;9.212;2023-02-15T03:32:38;12.73;;;11.52;;
7817;SDS011;3954;52.624;9.212;2023-02-15T03:35:05;12.80;;;11.60;;
7817;SDS011;3954;52.624;9.212;2023-02-15T03:37:32;12.38;;;11.18;;
7817;SDS011;3954;52.624;9.212;2023-02-15T03:40:03;12.98;;;11.77;;
7817;SDS011;3954;52.624;9.212;2023-02-15T03:42:53;12.75;;;11.55;;
7817;SDS011;3954;52.624;9.212;2023-02-15T03:45:23;12.18;;;10.98;;
7817;SDS011;3954;52.624;9.212;2023-02-15T03:47:50;13.02;;;11.82;;
7817;SDS011;3954;52.624;9.212;2023-02-15T03:50:18;13.02;;;11.80;;
7817;SDS011;3954;52.624;9.212;2023-02-15T03:53:05;12.32;;;11.13;;
7817;SDS011;3954;52.624;9.212;2023-02-15T03:55:34;13.30;;;12.00;;
7817;SDS011;3954;52.624;9.212;2023-02-15T03:58:00;13.38;;;12.07;;
7817;SDS011;3954;52.624;9.212;2023-02-15T04:00:47;11.73;;;10.60;;
7817;SDS011;3954;52.624;9.212;2023-02-15T04:03:35;14.00;;;12.60;;
7817;SDS011;3954;52.624;9.212;2023-02-15T04:06:02;12.52;;;11.43;;
7817;SDS011;3954;52.624;9.212;2023-02-15T04:08:28;12.35;;;11.18;;
7817;SDS011;3954;52.624;9.212;2023-02-15T04:11:15;12.13;;;10.93;;
7817;SDS011;3954;52.624;9.212;2023-02-15T04:13:41;12.38;;;11.20;;
7817;SDS011;3954;52.624;9.212;2023-02-15T04:16:07;12.25;;;11.05;;
7817;SDS011;3954;52.624;9.212;2023-02-15T04:18:34;12.63;;;11.35;;
7817;SDS011;3954;52.624;9.212;2023-02-15T04:21:19;11.43;;;10.32;;
7817;SDS011;3954;52.624;9.212;2023-02-15T04:24:04;11.87;;;10.77;;
7817;SDS011;3954;52.624;9.212;2023-02-15T04:26:50;12.10;;;11.00;;
7817;SDS011;3954;52.624;9.212;2023-02-15T04:29:19;11.50;;;10.40;;
7817;SDS011;3954;52.624;9.212;2023-02-15T04:31:45;11.07;;;9.98;;
7817;SDS011;3954;52.624;9.212;2023-02-15T04:34:12;12.55;;;11.38;;
7817;SDS011;3954;52.624;9.212;2023-02-15T04:36:38;12.30;;;11.20;;
7817;SDS011;3954;52.624;9.212;2023-02-15T04:39:04;11.10;;;10.10;;
7817;SDS011;3954;52.624;9.212;2023-02-15T04:41:30;11.35;;;10.25;;
7817;SDS011;3954;52.624;9.212;2023-02-15T04:43:58;11.07;;;10.07;;
7817;SDS011;3954;52.624;9.212;2023-02-15T04:46:25;10.75;;;9.80;;
7817;SDS011;3954;52.624;9.212;2023-02-15T04:48:51;10.85;;;9.85;;
7817;SDS011;3954;52.624;9.212;2023-02-15T04:51:17;11.30;;;10.20;;
7817;SDS011;3954;52.624;9.212;2023-02-15T04:53:44;10.43;;;9.52;;
7817;SDS011;3954;52.624;9.212;2023-02-15T04:56:10;10.05;;;9.15;;
7817;SDS011;3954;52.624;9.212;2023-02-15T04:58:36;10.15;;;9.25;;
7817;SDS011;3954;52.624;9.212;2023-02-15T05:01:07;10.30;;;9.40;;
7817;SDS011;3954;52.624;9.212;2023-02-15T05:03:33;10.50;;;9.55;;
7817;SDS011;3954;52.624;9.212;2023-02-15T05:05:59;10.27;;;9.27;;
7817;SDS011;3954;52.624;9.212;2023-02-15T05:08:25;9.95;;;9.05;;
7817;SDS011;3954;52.624;9.212;2023-02-15T05:10:51;9.38;;;8.52;;
7817;SDS011;3954;52.624;9.212;2023-02-15T05:13:17;9.95;;;9.10;;
7817;SDS011;3954;52.624;9.212;2023-02-15T05:15:46;10.02;;;9.13;;
7817;SDS011;3954;52.624;9.212;2023-02-15T05:18:13;10.35;;;9.45;;
7817;SDS011;3954;52.624;9.212;2023-02-15T05:20:39;10.07;;;9.18;;
7817;SDS011;3954;52.624;9.212;2023-02-15T05:23:05;10.65;;;9.73;;
7817;SDS011;3954;52.624;9.212;2023-02-15T05:25:31;10.23;;;9.33;;
7817;SDS011;3954;52.624;9.212;2023-02-15T05:28:16;10.20;;;9.30;;
7817;SDS011;3954;52.624;9.212;2023-02-15T05:30:44;10.10;;;9.20;;
7817;SDS011;3954;52.624;9.212;2023-02-15T05:33:10;9.77;;;8.88;;
7817;SDS011;3954;52.624;9.212;2023-02-15T05:35:38;9.90;;;9.00;;
7817;SDS011;3954;52.624;9.212;2023-02-15T05:38:04;10.40;;;9.50;;
7817;SDS011;3954;52.624;9.212;2023-02-15T05:40:30;11.68;;;10.68;;
7817;SDS011;3954;52.624;9.212;2023-02-15T05:42:56;11.10;;;10.10;;
7817;SDS011;3954;52.624;9.212;2023-02-15T05:45:22;10.88;;;9.93;;
7817;SDS011;3954;52.624;9.212;2023-02-15T05:47:48;10.27;;;9.27;;
7817;SDS011;3954;52.624;9.212;2023-02-15T05:50:14;10.57;;;9.65;;
7817;SDS011;3954;52.624;9.212;2023-02-15T05:52:41;12.57;;;11.37;;
7817;SDS011;3954;52.624;9.212;2023-02-15T05:55:07;12.68;;;11.48;;
7817;SDS011;3954;52.624;9.212;2023-02-15T05:57:33;12.90;;;11.70;;
7817;SDS011;3954;52.624;9.212;2023-02-15T06:00:00;13.27;;;11.90;;
7817;SDS011;3954;52.624;9.212;2023-02-15T06:02:26;11.30;;;10.20;;
7817;SDS011;3954;52.624;9.212;2023-02-15T06:04:52;11.48;;;10.48;;
7817;SDS011;3954;52.624;9.212;2023-02-15T06:07:18;11.25;;;10.15;;
7817;SDS011;3954;52.624;9.212;2023-02-15T06:09:45;12.47;;;11.27;;
7817;SDS011;3954;52.624;9.212;2023-02-15T06:12:11;13.23;;;11.93;;
7817;SDS011;3954;52.624;9.212;2023-02-15T06:14:37;12.63;;;11.32;;
7817;SDS011;3954;52.624;9.212;2023-02-15T06:17:03;12.75;;;11.55;;
7817;SDS011;3954;52.624;9.212;2023-02-15T06:19:29;12.95;;;11.70;;
7817;SDS011;3954;52.624;9.212;2023-02-15T06:21:55;17.20;;;15.57;;
7817;SDS011;3954;52.624;9.212;2023-02-15T06:24:21;15.77;;;14.27;;
7817;SDS011;3954;52.624;9.212;2023-02-15T06:26:49;14.38;;;12.98;;
7817;SDS011;3954;52.624;9.212;2023-02-15T06:29:15;13.90;;;12.50;;
7817;SDS011;3954;52.624;9.212;2023-02-15T06:31:41;13.98;;;12.57;;
7817;SDS011;3954;52.624;9.212;2023-02-15T06:34:07;13.55;;;12.20;;
7817;SDS011;3954;52.624;9.212;2023-02-15T06:36:33;13.10;;;11.70;;
7817;SDS011;3954;52.624;9.212;2023-02-15T06:38:59;12.50;;;11.20;;
7817;SDS011;3954;52.624;9.212;2023-02-15T06:41:25;14.82;;;13.32;;
7817;SDS011;3954;52.624;9.212;2023-02-15T06:43:52;13.63;;;12.30;;
7817;SDS011;3954;52.624;9.212;2023-02-15T06:46:18;14.90;;;13.40;;
7817;SDS011;3954;52.624;9.212;2023-02-15T06:48:44;13.43;;;12.07;;
7817;SDS011;3954;52.624;9.212;2023-02-15T06:51:10;12.55;;;11.35;;
7817;SDS011;3954;52.624;9.212;2023-02-15T06:53:36;13.15;;;11.80;;
7817;SDS011;3954;52.624;9.212;2023-02-15T06:56:03;12.15;;;10.90;;
7817;SDS011;3954;52.624;9.212;2023-02-15T06:58:31;14.07;;;12.68;;
7817;SDS011;3954;52.624;9.212;2023-02-15T07:00:58;13.80;;;12.43;;
7817;SDS011;3954;52.624;9.212;2023-02-15T07:03:24;14.93;;;13.32;;
7817;SDS011;3954;52.624;9.212;2023-02-15T07:05:53;14.30;;;12.80;;
7817;SDS011;3954;52.624;9.212;2023-02-15T07:08:19;14.77;;;12.90;;
7817;SDS011;3954;52.624;9.212;2023-02-15T07:10:45;14.75;;;12.88;;
7817;SDS011;3954;52.624;9.212;2023-02-15T07:13:11;15.55;;;12.85;;
7817;SDS011;3954;52.624;9.212;2023-02-15T07:15:37;15.50;;;13.05;;
7817;SDS011;3954;52.624;9.212;2023-02-15T07:18:04;14.63;;;12.05;;
7817;SDS011;3954;52.624;9.212;2023-02-15T07:20:30;12.63;;;11.27;;
7817;SDS011;3954;52.624;9.212;2023-02-15T07:22:58;15.50;;;12.80;;
7817;SDS011;3954;52.624;9.212;2023-02-15T07:25:24;13.83;;;12.43;;
7817;SDS011;3954;52.624;9.212;2023-02-15T07:27:54;13.02;;;11.73;;
7817;SDS011;3954;52.624;9.212;2023-02-15T07:30:20;13.50;;;12.13;;
7817;SDS011;3954;52.624;9.212;2023-02-15T07:32:46;14.30;;;12.88;;
7817;SDS011;3954;52.624;9.212;2023-02-15T07:35:34;14.80;;;13.25;;
7817;SDS011;3954;52.624;9.212;2023-02-15T07:38:00;22.67;;;18.00;;
7817;SDS011;3954;52.624;9.212;2023-02-15T07:40:26;25.27;;;21.33;;
7817;SDS011;3954;52.624;9.212;2023-02-15T07:42:52;25.48;;;22.42;;
7817;SDS011;3954;52.624;9.212;2023-02-15T07:45:19;36.35;;;25.95;;
7817;SDS011;3954;52.624;9.212;2023-02-15T07:47:45;28.15;;;21.48;;
7817;SDS011;3954;52.624;9.212;2023-02-15T07:50:12;17.08;;;14.90;;
7817;SDS011;3954;52.624;9.212;2023-02-15T07:52:39;15.90;;;13.50;;
7817;SDS011;3954;52.624;9.212;2023-02-15T07:55:05;18.23;;;14.02;;
7817;SDS011;3954;52.624;9.212;2023-02-15T07:57:33;14.75;;;12.32;;
7817;SDS011;3954;52.624;9.212;2023-02-15T07:59:59;15.88;;;14.02;;
7817;SDS011;3954;52.624;9.212;2023-02-15T08:02:25;16.70;;;14.45;;
7817;SDS011;3954;52.624;9.212;2023-02-15T08:04:51;16.40;;;14.70;;
7817;SDS011;3954;52.624;9.212;2023-02-15T08:07:17;17.20;;;15.40;;
7817;SDS011;3954;52.624;9.212;2023-02-15T08:09:44;17.40;;;15.52;;
7817;SDS011;3954;52.624;9.212;2023-02-15T08:12:10;16.88;;;15.18;;
7817;SDS011;3954;52.624;9.212;2023-02-15T08:14:36;16.83;;;14.37;;
7817;SDS011;3954;52.624;9.212;2023-02-15T08:17:02;16.45;;;14.80;;
7817;SDS011;3954;52.624;9.212;2023-02-15T08:19:30;15.80;;;14.20;;
7817;SDS011;3954;52.624;9.212;2023-02-15T08:21:57;15.50;;;13.98;;
7817;SDS011;3954;52.624;9.212;2023-02-15T08:24:24;13.63;;;12.32;;
7817;SDS011;3954;52.624;9.212;2023-02-15T08:26:52;15.20;;;12.73;;
7817;SDS011;3954;52.624;9.212;2023-02-15T08:29:19;12.97;;;11.70;;
7817;SDS011;3954;52.624;9.212;2023-02-15T08:31:46;13.68;;;12.25;;
7817;SDS011;3954;52.624;9.212;2023-02-15T08:34:13;13.48;;;12.07;;
7817;SDS011;3954;52.624;9.212;2023-02-15T08:36:40;13.25;;;11.85;;
7817;SDS011;3954;52.624;9.212;2023-02-15T08:39:06;13.63;;;12.30;;
7817;SDS011;3954;52.624;9.212;2023-02-15T08:41:33;13.70;;;12.18;;
7817;SDS011;3954;52.624;9.212;2023-02-15T08:44:01;13.23;;;11.93;;
7817;SDS011;3954;52.624;9.212;2023-02-15T08:46:28;13.40;;;12.00;;
7817;SDS011;3954;52.624;9.212;2023-02-15T08:48:55;13.18;;;11.88;;
7817;SDS011;3954;52.624;9.212;2023-02-15T08:51:21;13.73;;;12.32;;
7817;SDS011;3954;52.624;9.212;2023-02-15T08:53:48;13.55;;;12.20;;
7817;SDS011;3954;52.624;9.212;2023-02-15T08:56:14;12.55;;;11.25;;
7817;SDS011;3954;52.624;9.212;2023-02-15T08:58:41;13.57;;;12.27;;
7817;SDS011;3954;52.624;9.212;2023-02-15T09:01:09;14.40;;;12.90;;
7817;SDS011;3954;52.624;9.212;2023-02-15T09:03:36;14.63;;;13.13;;
7817;SDS011;3954;52.624;9.212;2023-02-15T09:06:02;14.40;;;13.00;;
7817;SDS011;3954;52.624;9.212;2023-02-15T09:08:28;13.57;;;12.27;;
7817;SDS011;3954;52.624;9.212;2023-02-15T09:10:54;13.77;;;12.38;;
7817;SDS011;3954;52.624;9.212;2023-02-15T09:13:20;13.70;;;12.35;;
7817;SDS011;3954;52.624;9.212;2023-02-15T09:15:46;13.40;;;12.10;;
7817;SDS011;3954;52.624;9.212;2023-02-15T09:18:14;13.85;;;12.50;;
7817;SDS011;3954;52.624;9.212;2023-02-15T09:20:42;13.20;;;11.90;;
7817;SDS011;3954;52.624;9.212;2023-02-15T09:23:08;13.30;;;11.98;;
7817;SDS011;3954;52.624;9.212;2023-02-15T09:25:34;13.38;;;12.05;;
7817;SDS011;3954;52.624;9.212;2023-02-15T09:28:00;12.57;;;11.35;;
7817;SDS011;3954;52.624;9.212;2023-02-15T09:30:26;11.95;;;10.75;;
7817;SDS011;3954;52.624;9.212;2023-02-15T09:32:52;12.95;;;11.75;;
7817;SDS011;3954;52.624;9.212;2023-02-15T09:35:19;12.50;;;11.30;;
7817;SDS011;3954;52.624;9.212;2023-02-15T09:37:45;13.00;;;11.80;;
7817;SDS011;3954;52.624;9.212;2023-02-15T09:40:11;12.18;;;10.98;;
7817;SDS011;3954;52.624;9.212;2023-02-15T09:42:41;12.38;;;10.85;;
7817;SDS011;3954;52.624;9.212;2023-02-15T09:45:13;11.40;;;10.30;;
7817;SDS011;3954;52.624;9.212;2023-02-15T09:50:38;11.50;;;10.40;;
7817;SDS011;3954;52.624;9.212;2023-02-15T09:53:19;11.70;;;10.30;;
7817;SDS011;3954;52.624;9.212;2023-02-15T09:55:48;12.57;;;10.90;;
7817;SDS011;3954;52.624;9.212;2023-02-15T09:58:18;11.63;;;10.52;;
7817;SDS011;3954;52.624;9.212;2023-02-15T10:00:50;10.88;;;9.77;;
7817;SDS011;3954;52.624;9.212;2023-02-15T10:03:23;11.70;;;10.60;;
7817;SDS011;3954;52.624;9.212;2023-02-15T10:05:57;11.57;;;10.37;;
7817;SDS011;3954;52.624;9.212;2023-02-15T10:11:09;11.85;;;10.65;;
7817;SDS011;3954;52.624;9.212;2023-02-15T10:13:58;11.67;;;10.57;;
7817;SDS011;3954;52.624;9.212;2023-02-15T10:16:31;11.32;;;9.98;;
7817;SDS011;3954;52.624;9.212;2023-02-15T10:19:03;12.05;;;10.10;;
7817;SDS011;3954;52.624;9.212;2023-02-15T10:21:36;10.73;;;9.67;;
7817;SDS011;3954;52.624;9.212;2023-02-15T10:24:19;11.10;;;10.00;;
7817;SDS011;3954;52.624;9.212;2023-02-15T10:26:48;10.68;;;9.68;;
7817;SDS011;3954;52.624;9.212;2023-02-15T10:29:17;9.87;;;8.67;;
7817;SDS011;3954;52.624;9.212;2023-02-15T10:31:46;10.40;;;9.40;;
7817;SDS011;3954;52.624;9.212;2023-02-15T10:34:15;10.53;;;9.43;;
7817;SDS011;3954;52.624;9.212;2023-02-15T10:36:57;10.47;;;9.40;;
7817;SDS011;3954;52.624;9.212;2023-02-15T10:39:30;10.27;;;9.17;;
7817;SDS011;3954;52.624;9.212;2023-02-15T10:42:01;13.57;;;9.13;;
7817;SDS011;3954;52.624;9.212;2023-02-15T10:44:34;11.65;;;10.45;;
7817;SDS011;3954;52.624;9.212;2023-02-15T10:47:06;10.63;;;9.53;;
7817;SDS011;3954;52.624;9.212;2023-02-15T10:49:41;9.87;;;8.77;;
7817;SDS011;3954;52.624;9.212;2023-02-15T10:52:17;10.30;;;8.83;;
7817;SDS011;3954;52.624;9.212;2023-02-15T10:54:45;10.77;;;9.37;;
7817;SDS011;3954;52.624;9.212;2023-02-15T10:57:16;10.47;;;9.37;;
7817;SDS011;3954;52.624;9.212;2023-02-15T10:59:56;10.50;;;9.40;;
7817;SDS011;3954;52.624;9.212;2023-02-15T11:02:26;10.53;;;9.43;;
7817;SDS011;3954;52.624;9.212;2023-02-15T11:05:00;10.27;;;9.17;;
7817;SDS011;3954;52.624;9.212;2023-02-15T11:07:31;11.83;;;10.63;;
7817;SDS011;3954;52.624;9.212;2023-02-15T11:10:00;11.47;;;9.43;;
7817;SDS011;3954;52.624;9.212;2023-02-15T11:12:27;9.90;;;8.90;;
7817;SDS011;3954;52.624;9.212;2023-02-15T11:14:56;10.77;;;9.37;;
7817;SDS011;3954;52.624;9.212;2023-02-15T11:17:24;10.47;;;9.03;;
7817;SDS011;3954;52.624;9.212;2023-02-15T11:19:54;11.60;;;9.50;;
7817;SDS011;3954;52.624;9.212;2023-02-15T11:25:25;10.97;;;9.10;;
7817;SDS011;3954;52.624;9.212;2023-02-15T11:27:51;10.47;;;9.07;;
7817;SDS011;3954;52.624;9.212;2023-02-15T11:30:19;11.60;;;10.40;;
7817;SDS011;3954;52.624;9.212;2023-02-15T11:32:45;11.53;;;10.33;;
7817;SDS011;3954;52.624;9.212;2023-02-15T11:35:17;12.23;;;10.65;;
7817;SDS011;3954;52.624;9.212;2023-02-15T11:37:46;11.27;;;9.90;;
7817;SDS011;3954;52.624;9.212;2023-02-15T11:40:15;11.32;;;10.13;;
7817;SDS011;3954;52.624;9.212;2023-02-15T11:42:45;11.00;;;9.90;;
7817;SDS011;3954;52.624;9.212;2023-02-15T11:45:17;11.85;;;10.35;;
7817;SDS011;3954;52.624;9.212;2023-02-15T11:47:45;11.48;;;10.27;;
7817;SDS011;3954;52.624;9.212;2023-02-15T11:50:12;12.98;;;11.45;;
7817;SDS011;3954;52.624;9.212;2023-02-15T11:52:39;13.43;;;11.52;;
7817;SDS011;3954;52.624;9.212;2023-02-15T11:55:09;12.48;;;11.27;;
7817;SDS011;3954;52.624;9.212;2023-02-15T11:57:38;12.07;;;10.88;;
7817;SDS011;3954;52.624;9.212;2023-02-15T12:00:09;13.33;;;10.83;;
7817;SDS011;3954;52.624;9.212;2023-02-15T12:02:37;12.55;;;11.25;;
7817;SDS011;3954;52.624;9.212;2023-02-15T12:05:03;14.15;;;11.27;;
7817;SDS011;3954;52.624;9.212;2023-02-15T12:07:32;12.75;;;11.27;;
7817;SDS011;3954;52.624;9.212;2023-02-15T12:10:02;12.50;;;11.20;;
7817;SDS011;3954;52.624;9.212;2023-02-15T12:12:32;13.07;;;11.05;;
7817;SDS011;3954;52.624;9.212;2023-02-15T12:14:59;13.65;;;11.98;;
7817;SDS011;3954;52.624;9.212;2023-02-15T12:17:27;13.10;;;11.70;;
7817;SDS011;3954;52.624;9.212;2023-02-15T12:19:54;14.48;;;12.25;;
7817;SDS011;3954;52.624;9.212;2023-02-15T12:22:22;13.73;;;11.65;;
7817;SDS011;3954;52.624;9.212;2023-02-15T12:24:49;13.80;;;11.95;;
7817;SDS011;3954;52.624;9.212;2023-02-15T12:27:17;13.65;;;11.35;;
7817;SDS011;3954;52.624;9.212;2023-02-15T12:29:44;12.25;;;11.02;;
7817;SDS011;3954;52.624;9.212;2023-02-15T12:32:11;13.23;;;11.65;;
7817;SDS011;3954;52.624;9.212;2023-02-15T12:34:44;13.38;;;11.43;;
7817;SDS011;3954;52.624;9.212;2023-02-15T12:37:14;13.27;;;11.35;;
7817;SDS011;3954;52.624;9.212;2023-02-15T12:39:45;13.52;;;11.82;;
7817;SDS011;3954;52.624;9.212;2023-02-15T12:42:16;14.65;;;11.75;;
7817;SDS011;3954;52.624;9.212;2023-02-15T12:44:53;13.02;;;11.45;;
7817;SDS011;3954;52.624;9.212;2023-02-15T12:47:19;13.80;;;10.90;;
7817;SDS011;3954;52.624;9.212;2023-02-15T12:50:04;12.52;;;11.23;;
7817;SDS011;3954;52.624;9.212;2023-02-15T12:52:30;12.82;;;11.07;;
7817;SDS011;3954;52.624;9.212;2023-02-15T12:54:56;12.25;;;10.77;;
7817;SDS011;3954;52.624;9.212;2023-02-15T12:57:35;12.30;;;11.00;;
7817;SDS011;3954;52.624;9.212;2023-02-15T13:00:02;12.80;;;11.37;;
7817;SDS011;3954;52.624;9.212;2023-02-15T13:02:33;12.60;;;10.90;;
7817;SDS011;3954;52.624;9.212;2023-02-15T13:05:05;12.10;;;10.52;;
7817;SDS011;3954;52.624;9.212;2023-02-15T13:07:43;12.15;;;10.88;;
7817;SDS011;3954;52.624;9.212;2023-02-15T13:10:18;12.65;;;11.35;;
7817;SDS011;3954;52.624;9.212;2023-02-15T13:12:46;11.60;;;10.40;;
7817;SDS011;3954;52.624;9.212;2023-02-15T13:15:22;12.15;;;10.85;;
7817;SDS011;3954;52.624;9.212;2023-02-15T13:17:48;13.90;;;11.13;;
7817;SDS011;3954;52.624;9.212;2023-02-15T13:20:16;12.77;;;11.38;;
7817;SDS011;3954;52.624;9.212;2023-02-15T13:22:43;12.80;;;11.35;;
7817;SDS011;3954;52.624;9.212;2023-02-15T13:25:12;12.95;;;11.65;;
7817;SDS011;3954;52.624;9.212;2023-02-15T13:27:39;13.65;;;11.40;;
7817;SDS011;3954;52.624;9.212;2023-02-15T13:30:12;13.98;;;12.20;;
7817;SDS011;3954;52.624;9.212;2023-02-15T13:32:39;12.95;;;11.23;;
7817;SDS011;3954;52.624;9.212;2023-02-15T13:35:10;14.95;;;11.88;;
7817;SDS011;3954;52.624;9.212;2023-02-15T13:37:45;12.88;;;11.40;;
7817;SDS011;3954;52.624;9.212;2023-02-15T13:40:15;14.15;;;12.00;;
7817;SDS011;3954;52.624;9.212;2023-02-15T13:42:42;13.70;;;11.70;;
7817;SDS011;3954;52.624;9.212;2023-02-15T13:45:16;12.90;;;11.30;;
7817;SDS011;3954;52.624;9.212;2023-02-15T13:47:49;13.77;;;11.70;;
7817;SDS011;3954;52.624;9.212;2023-02-15T13:50:20;13.52;;;11.90;;
7817;SDS011;3954;52.624;9.212;2023-02-15T13:52:50;15.13;;;12.32;;
7817;SDS011;3954;52.624;9.212;2023-02-15T13:55:21;14.30;;;12.07;;
7817;SDS011;3954;52.624;9.212;2023-02-15T13:57:56;13.73;;;12.13;;
7817;SDS011;3954;52.624;9.212;2023-02-15T14:00:26;15.27;;;12.37;;
7817;SDS011;3954;52.624;9.212;2023-02-15T14:03:11;13.77;;;12.00;;
7817;SDS011;3954;52.624;9.212;2023-02-15T14:05:45;14.52;;;12.02;;
7817;SDS011;3954;52.624;9.212;2023-02-15T14:08:16;13.85;;;12.10;;
7817;SDS011;3954;52.624;9.212;2023-02-15T14:10:44;15.13;;;12.90;;
7817;SDS011;3954;52.624;9.212;2023-02-15T14:15:57;15.73;;;13.18;;
7817;SDS011;3954;52.624;9.212;2023-02-15T14:18:25;15.48;;;12.48;;
7817;SDS011;3954;52.624;9.212;2023-02-15T14:20:57;13.75;;;12.30;;
7817;SDS011;3954;52.624;9.212;2023-02-15T14:23:31;15.02;;;12.75;;
7817;SDS011;3954;52.624;9.212;2023-02-15T14:26:02;15.73;;;12.80;;
7817;SDS011;3954;52.624;9.212;2023-02-15T14:28:31;15.13;;;12.98;;
7817;SDS011;3954;52.624;9.212;2023-02-15T14:30:59;16.02;;;13.82;;
7817;SDS011;3954;52.624;9.212;2023-02-15T14:33:29;15.60;;;13.30;;
7817;SDS011;3954;52.624;9.212;2023-02-15T14:35:57;15.57;;;13.23;;
7817;SDS011;3954;52.624;9.212;2023-02-15T14:38:27;17.27;;;13.60;;
7817;SDS011;3954;52.624;9.212;2023-02-15T14:40:59;15.00;;;12.57;;
7817;SDS011;3954;52.624;9.212;2023-02-15T14:43:42;16.27;;;13.90;;
7817;SDS011;3954;52.624;9.212;2023-02-15T14:46:13;14.55;;;12.82;;
7817;SDS011;3954;52.624;9.212;2023-02-15T14:48:44;15.30;;;13.32;;
7817;SDS011;3954;52.624;9.212;2023-02-15T14:51:12;14.45;;;12.95;;
7817;SDS011;3954;52.624;9.212;2023-02-15T14:53:59;13.90;;;12.45;;
7817;SDS011;3954;52.624;9.212;2023-02-15T14:56:25;15.68;;;12.68;;
7817;SDS011;3954;52.624;9.212;2023-02-15T15:01:36;14.68;;;13.05;;
7817;SDS011;3954;52.624;9.212;2023-02-15T15:04:04;16.17;;;13.63;;
7817;SDS011;3954;52.624;9.212;2023-02-15T15:06:33;16.95;;;13.75;;
7817;SDS011;3954;52.624;9.212;2023-02-15T15:09:08;15.88;;;13.85;;
7817;SDS011;3954;52.624;9.212;2023-02-15T15:11:38;15.07;;;13.38;;
7817;SDS011;3954;52.624;9.212;2023-02-15T15:14:04;16.42;;;13.68;;
7817;SDS011;3954;52.624;9.212;2023-02-15T15:16:34;18.17;;;13.98;;